Time;durP1;ratioP1;P1;durP2;ratioP2;P2;SDS_P1;SDS_P2;PMS_P1;PMS_P2;Temp;Humidity;BMP_temperature;BMP_pressure;BME280_temperature;BME280_humidity;BME280_pressure;Samples;Min_cycle;Max_cycle;Signal;HPM_P1;HPM_P2
2024/01/28 00:00:45;;;;;;;12.07;2.53;;;2.80;99.90;;;;;;5049990;28;20155;-54
2024/01/28 00:03:14;;;;;;;7.23;1.90;;;2.70;99.90;;;;;;5048071;28;20033;-52
2024/01/28 00:05:39;;;;;;;9.95;2.58;;;2.60;99.90;;;;;;5049735;28;20116;-51
2024/01/28 00:08:06;;;;;;;7.97;1.87;;;2.60;99.90;;;;;;5048250;28;20075;-50
2024/01/28 00:10:32;;;;;;;10.70;2.33;;;2.50;99.90;;;;;;5049717;28;20033;-53
2024/01/28 00:12:57;;;;;;;6.10;2.47;;;2.50;99.90;;;;;;5047981;28;20082;-55
2024/01/28 00:15:23;;;;;;;4.70;2.07;;;2.30;99.90;;;;;;5049820;28;20029;-50
2024/01/28 00:17:50;;;;;;;12.60;2.03;;;2.30;99.90;;;;;;5049666;28;20366;-54
2024/01/28 00:20:16;;;;;;;9.50;2.53;;;2.20;99.90;;;;;;5049061;28;20040;-55
2024/01/28 00:22:41;;;;;;;12.53;2.80;;;2.00;99.90;;;;;;5053000;28;20029;-55
2024/01/28 00:25:07;;;;;;;6.37;2.17;;;1.90;99.90;;;;;;5051997;28;20487;-54
2024/01/28 00:27:33;;;;;;;6.07;2.03;;;1.80;99.90;;;;;;5051979;28;20087;-53
2024/01/28 00:29:58;;;;;;;8.03;2.20;;;1.80;99.90;;;;;;5051449;28;20044;-53
2024/01/28 00:32:24;;;;;;;5.87;1.90;;;1.70;99.90;;;;;;5053057;28;20048;-50
2024/01/28 00:34:49;;;;;;;9.07;2.33;;;1.60;99.90;;;;;;5052919;28;20056;-54
2024/01/28 00:37:15;;;;;;;5.13;1.80;;;1.60;99.90;;;;;;5052984;28;20645;-55
2024/01/28 00:39:41;;;;;;;7.70;1.93;;;1.60;99.90;;;;;;5052847;28;20035;-53
2024/01/28 00:42:06;;;;;;;7.77;1.97;;;1.80;99.90;;;;;;5053161;28;20033;-54
2024/01/28 00:44:32;;;;;;;5.27;1.70;;;1.80;99.90;;;;;;5052718;28;20044;-53
2024/01/28 00:46:58;;;;;;;9.70;2.17;;;1.90;99.90;;;;;;5051549;28;20123;-54
2024/01/28 00:49:30;;;;;;;6.40;1.90;;;2.00;99.90;;;;;;5052754;28;20127;-51
2024/01/28 00:51:56;;;;;;;6.97;1.70;;;2.00;99.90;;;;;;5053369;28;20029;-51
2024/01/28 00:54:23;;;;;;;5.17;1.77;;;1.90;99.90;;;;;;5053402;28;20032;-52
2024/01/28 00:56:48;;;;;;;5.70;2.00;;;1.80;99.90;;;;;;5053607;28;20370;-53
2024/01/28 00:59:14;;;;;;;6.23;2.00;;;1.80;99.90;;;;;;5053297;28;20036;-51
2024/01/28 01:01:39;;;;;;;5.20;1.60;;;1.70;99.90;;;;;;5052979;28;20095;-50
2024/01/28 01:04:05;;;;;;;8.70;1.80;;;1.60;99.90;;;;;;5052417;28;20056;-53
2024/01/28 01:06:31;;;;;;;8.70;1.80;;;1.50;99.90;;;;;;5052718;28;20033;-49
2024/01/28 01:08:57;;;;;;;5.53;2.17;;;1.40;99.90;;;;;;5051051;28;20156;-52
2024/01/28 01:11:23;;;;;;;5.50;2.43;;;1.40;99.90;;;;;;5052663;28;20583;-53
2024/01/28 01:13:51;;;;;;;8.50;1.83;;;1.30;99.90;;;;;;5051800;28;20152;-55
2024/01/28 01:16:17;;;;;;;5.47;1.93;;;1.20;99.90;;;;;;5052477;28;20072;-54
2024/01/28 01:18:43;;;;;;;6.43;1.63;;;1.20;99.90;;;;;;5051829;28;20036;-54
2024/01/28 01:21:09;;;;;;;7.87;2.30;;;1.10;99.90;;;;;;5052316;28;20051;-55
2024/01/28 01:23:35;;;;;;;8.43;2.27;;;1.00;99.90;;;;;;5051984;28;20439;-54
2024/01/28 01:26:00;;;;;;;5.37;2.30;;;1.00;99.90;;;;;;5051966;28;20375;-54
2024/01/28 01:28:31;;;;;;;5.13;1.90;;;0.90;99.90;;;;;;5051998;28;20037;-55
2024/01/28 01:31:02;;;;;;;7.23;1.90;;;0.80;99.90;;;;;;5050662;28;20025;-52
2024/01/28 01:33:28;;;;;;;5.03;2.07;;;0.80;99.90;;;;;;5051025;28;20029;-53
2024/01/28 01:35:53;;;;;;;5.73;1.50;;;0.80;99.90;;;;;;5050590;28;20508;-54
2024/01/28 01:38:19;;;;;;;5.80;1.63;;;0.70;99.90;;;;;;5050442;28;20124;-54
2024/01/28 01:40:45;;;;;;;6.80;1.60;;;0.70;99.90;;;;;;5052039;28;20114;-54
2024/01/28 01:43:10;;;;;;;5.40;1.47;;;0.70;99.90;;;;;;5051793;28;20037;-54
2024/01/28 01:45:37;;;;;;;10.20;2.30;;;0.70;99.90;;;;;;5050524;28;20029;-54
2024/01/28 01:48:08;;;;;;;3.33;1.40;;;0.70;99.90;;;;;;5051807;28;20115;-54
2024/01/28 01:50:34;;;;;;;8.97;2.30;;;0.70;99.90;;;;;;5051840;28;20040;-54
2024/01/28 01:53:01;;;;;;;8.67;2.17;;;0.70;99.90;;;;;;5051649;28;20033;-55
2024/01/28 01:55:27;;;;;;;6.47;2.03;;;0.70;99.90;;;;;;5051919;28;20029;-51
2024/01/28 01:57:54;;;;;;;5.30;1.80;;;0.60;99.90;;;;;;5052072;28;20139;-51
2024/01/28 02:00:20;;;;;;;7.33;2.23;;;0.60;99.90;;;;;;5051438;28;20124;-53
2024/01/28 02:02:46;;;;;;;7.83;1.53;;;0.60;99.90;;;;;;5051466;28;20090;-50
2024/01/28 02:05:12;;;;;;;8.03;1.37;;;0.60;99.90;;;;;;5051326;28;20373;-50
2024/01/28 02:07:38;;;;;;;4.13;1.60;;;0.60;99.90;;;;;;5050032;28;20116;-50
2024/01/28 02:10:05;;;;;;;4.57;1.90;;;0.60;99.90;;;;;;5051228;28;20045;-50
2024/01/28 02:12:31;;;;;;;5.47;1.80;;;0.60;99.90;;;;;;5051508;28;20044;-52
2024/01/28 02:15:09;;;;;;;7.03;1.60;;;0.50;99.90;;;;;;5051277;28;20338;-50
2024/01/28 02:17:35;;;;;;;5.53;1.33;;;0.60;99.90;;;;;;5051615;28;20056;-51
2024/01/28 02:20:01;;;;;;;9.17;1.70;;;0.60;99.90;;;;;;5051420;28;20115;-52
2024/01/28 02:22:27;;;;;;;6.20;1.47;;;0.60;99.90;;;;;;5051134;28;20043;-54
2024/01/28 02:24:53;;;;;;;3.80;1.67;;;0.60;99.90;;;;;;5051054;28;20036;-53
2024/01/28 02:27:18;;;;;;;5.23;1.63;;;0.60;99.90;;;;;;5051134;28;20035;-51
2024/01/28 02:29:44;;;;;;;7.37;1.20;;;0.60;99.90;;;;;;5049167;28;20033;-51
2024/01/28 02:32:11;;;;;;;4.23;1.47;;;0.60;99.90;;;;;;5051018;28;20060;-52
2024/01/28 02:34:37;;;;;;;2.80;1.17;;;0.50;99.90;;;;;;5050533;28;20033;-51
2024/01/28 02:37:03;;;;;;;5.97;1.20;;;0.50;99.90;;;;;;5051194;28;20037;-54
2024/01/28 02:39:28;;;;;;;3.93;1.40;;;0.50;99.90;;;;;;5050712;28;20028;-55
2024/01/28 02:41:54;;;;;;;8.80;1.90;;;0.50;99.90;;;;;;5050770;28;20528;-54
2024/01/28 02:44:20;;;;;;;5.40;1.30;;;0.40;99.90;;;;;;5049748;28;20038;-54
2024/01/28 02:46:46;;;;;;;9.10;1.67;;;0.40;99.90;;;;;;5050447;28;20041;-54
2024/01/28 02:49:11;;;;;;;5.10;1.53;;;0.40;99.90;;;;;;5050185;28;20032;-55
2024/01/28 02:51:37;;;;;;;7.20;1.50;;;0.40;99.90;;;;;;5050879;28;20038;-51
2024/01/28 02:54:03;;;;;;;7.00;1.80;;;0.40;99.90;;;;;;5050853;28;20033;-53
2024/01/28 02:56:29;;;;;;;6.67;1.30;;;0.40;99.90;;;;;;5050333;28;20533;-54
2024/01/28 02:58:54;;;;;;;6.67;1.23;;;0.40;99.90;;;;;;5050128;28;20032;-56
2024/01/28 03:01:20;;;;;;;4.63;1.43;;;0.40;99.90;;;;;;5050467;28;20033;-54
2024/01/28 03:03:46;;;;;;;6.40;1.80;;;0.50;99.90;;;;;;5049957;28;20035;-54
2024/01/28 03:06:12;;;;;;;5.73;1.60;;;0.50;99.90;;;;;;5050325;28;20119;-53
2024/01/28 03:08:37;;;;;;;6.90;1.67;;;0.50;99.90;;;;;;5049819;28;20068;-55
2024/01/28 03:11:03;;;;;;;5.20;1.50;;;0.50;99.90;;;;;;5050298;28;20029;-54
2024/01/28 03:13:29;;;;;;;6.43;1.53;;;0.60;99.90;;;;;;5049769;28;20032;-54
2024/01/28 03:15:55;;;;;;;3.50;1.43;;;0.50;99.90;;;;;;5049941;28;20029;-51
2024/01/28 03:18:23;;;;;;;5.63;1.47;;;0.60;99.90;;;;;;5050018;28;20442;-55
2024/01/28 03:20:49;;;;;;;5.80;1.70;;;0.60;99.90;;;;;;5050138;28;20086;-54
2024/01/28 03:23:14;;;;;;;2.83;1.20;;;0.50;99.90;;;;;;5049891;28;20447;-53
2024/01/28 03:25:40;;;;;;;5.63;1.53;;;0.60;99.90;;;;;;5049986;28;20036;-53
2024/01/28 03:28:06;;;;;;;3.67;1.60;;;0.60;99.90;;;;;;5050034;28;20036;-53
2024/01/28 03:30:32;;;;;;;7.57;1.63;;;0.60;99.90;;;;;;5049996;28;20390;-55
2024/01/28 03:32:58;;;;;;;4.97;1.87;;;0.60;99.90;;;;;;5049744;28;20033;-55
2024/01/28 03:35:24;;;;;;;7.83;1.50;;;0.50;99.90;;;;;;5049863;28;20033;-56
2024/01/28 03:37:50;;;;;;;2.23;0.90;;;0.50;99.90;;;;;;5050121;28;20029;-52
2024/01/28 03:40:16;;;;;;;4.63;1.53;;;0.50;99.90;;;;;;5049905;28;20119;-53
2024/01/28 03:42:42;;;;;;;3.70;1.27;;;0.40;99.90;;;;;;5049567;28;20040;-56
2024/01/28 03:45:09;;;;;;;4.67;1.40;;;0.40;99.90;;;;;;5049807;28;20354;-55
2024/01/28 03:47:35;;;;;;;10.07;1.80;;;0.40;99.90;;;;;;5049667;28;20037;-56
2024/01/28 03:50:02;;;;;;;7.53;1.63;;;0.50;99.90;;;;;;5049450;28;20037;-55
2024/01/28 03:52:28;;;;;;;5.70;1.60;;;0.40;99.90;;;;;;5049691;28;20366;-54
2024/01/28 03:54:53;;;;;;;4.37;1.27;;;0.40;99.90;;;;;;5049576;28;20025;-51
2024/01/28 03:57:19;;;;;;;3.43;1.33;;;0.40;99.90;;;;;;5052508;28;20399;-54
2024/01/28 03:59:44;;;;;;;11.20;2.03;;;0.40;99.90;;;;;;5053451;28;20076;-52
2024/01/28 04:02:10;;;;;;;3.33;1.37;;;0.40;99.90;;;;;;5053759;28;20064;-51
2024/01/28 04:04:35;;;;;;;4.37;1.33;;;0.40;99.90;;;;;;5053556;28;20397;-51
2024/01/28 04:07:01;;;;;;;8.10;1.70;;;0.40;99.90;;;;;;5053638;28;20029;-52
2024/01/28 04:09:27;;;;;;;6.27;1.40;;;0.30;99.90;;;;;;5053381;28;20385;-51
2024/01/28 04:11:52;;;;;;;10.53;1.53;;;0.20;99.90;;;;;;5053749;28;20362;-53
2024/01/28 04:14:18;;;;;;;5.10;1.40;;;0.30;99.90;;;;;;5053367;28;20071;-54
2024/01/28 04:16:44;;;;;;;3.87;1.47;;;0.30;99.90;;;;;;5053523;28;20040;-53
2024/01/28 04:19:09;;;;;;;6.93;1.23;;;0.20;99.90;;;;;;5053719;28;20037;-50
2024/01/28 04:21:35;;;;;;;4.47;1.10;;;0.20;99.90;;;;;;5054179;28;20040;-55
2024/01/28 04:24:01;;;;;;;2.57;1.20;;;0.20;99.90;;;;;;5051743;28;20033;-54
2024/01/28 04:26:28;;;;;;;3.87;1.37;;;0.20;99.90;;;;;;5053520;28;20436;-55
2024/01/28 04:28:53;;;;;;;4.63;1.67;;;0.20;99.90;;;;;;5053273;28;20032;-54
2024/01/28 04:31:20;;;;;;;4.23;1.60;;;0.20;99.90;;;;;;5053474;28;20044;-55
2024/01/28 04:33:46;;;;;;;3.90;1.43;;;0.10;99.90;;;;;;5053107;28;20021;-54
2024/01/28 04:36:11;;;;;;;8.10;1.60;;;0.10;99.90;;;;;;5053230;28;20496;-54
2024/01/28 04:38:37;;;;;;;7.43;1.40;;;0.10;99.90;;;;;;5052976;28;20021;-54
2024/01/28 04:41:03;;;;;;;6.00;1.70;;;0.10;99.90;;;;;;5053088;28;20049;-53
2024/01/28 04:43:30;;;;;;;4.97;1.47;;;0.10;99.90;;;;;;5052829;28;20029;-54
2024/01/28 04:45:56;;;;;;;7.50;1.53;;;0.10;99.90;;;;;;5053181;28;20122;-54
2024/01/28 04:48:21;;;;;;;8.40;2.57;;;0.20;99.90;;;;;;5052747;28;20088;-53
2024/01/28 04:50:47;;;;;;;10.03;2.33;;;0.20;99.90;;;;;;5052852;28;20037;-51
2024/01/28 04:53:13;;;;;;;8.60;2.10;;;0.20;99.90;;;;;;5052583;28;20382;-53
2024/01/28 04:55:38;;;;;;;8.87;2.80;;;0.20;99.90;;;;;;5052786;28;20087;-52
2024/01/28 04:58:04;;;;;;;9.77;2.57;;;0.30;99.90;;;;;;5052730;28;20029;-54
2024/01/28 05:00:30;;;;;;;9.90;2.23;;;0.30;99.90;;;;;;5052571;28;20401;-54
2024/01/28 05:02:56;;;;;;;11.03;2.30;;;0.30;99.90;;;;;;5050934;28;20070;-53
2024/01/28 05:05:22;;;;;;;4.87;1.90;;;0.30;99.90;;;;;;5051183;28;20029;-54
2024/01/28 05:07:48;;;;;;;6.57;1.73;;;0.30;99.90;;;;;;5051162;28;20340;-53
2024/01/28 05:10:14;;;;;;;8.27;1.70;;;0.30;99.90;;;;;;5052296;28;20152;-53
2024/01/28 05:12:40;;;;;;;5.50;1.50;;;0.30;99.90;;;;;;5052403;28;20441;-54
2024/01/28 05:15:07;;;;;;;7.97;1.67;;;0.40;99.90;;;;;;5052260;28;20120;-52
2024/01/28 05:17:34;;;;;;;5.50;1.77;;;0.30;99.90;;;;;;5050999;28;20167;-53
2024/01/28 05:20:00;;;;;;;6.17;1.60;;;0.30;99.90;;;;;;5052038;28;20033;-54
2024/01/28 05:22:26;;;;;;;5.13;1.77;;;0.30;99.90;;;;;;5052633;28;20453;-52
2024/01/28 05:24:52;;;;;;;3.63;1.40;;;0.30;99.90;;;;;;5050302;28;20081;-53
2024/01/28 05:27:17;;;;;;;5.50;1.53;;;0.20;99.90;;;;;;5052167;28;20036;-52
2024/01/28 05:29:43;;;;;;;4.43;1.43;;;0.30;99.90;;;;;;5051721;28;20044;-53
2024/01/28 05:32:09;;;;;;;4.90;1.43;;;0.20;99.90;;;;;;5052073;28;20486;-54
2024/01/28 05:34:35;;;;;;;4.70;1.43;;;0.20;99.90;;;;;;5052037;28;20037;-51
2024/01/28 05:37:00;;;;;;;7.60;1.87;;;0.20;99.90;;;;;;5051903;28;20040;-50
2024/01/28 05:39:26;;;;;;;6.00;1.63;;;0.10;99.90;;;;;;5051602;28;20037;-54
2024/01/28 05:41:51;;;;;;;5.00;1.70;;;0.10;99.90;;;;;;5051984;28;20386;-54
2024/01/28 05:44:17;;;;;;;5.40;1.83;;;0.10;99.90;;;;;;5051557;28;20029;-54
2024/01/28 05:46:43;;;;;;;3.67;1.23;;;0.00;99.90;;;;;;5051576;28;20044;-55
2024/01/28 05:49:11;;;;;;;4.37;1.67;;;0.00;99.90;;;;;;5051479;28;20405;-54
2024/01/28 05:51:39;;;;;;;3.70;1.50;;;-0.10;99.90;;;;;;5051719;28;20053;-54
2024/01/28 05:54:05;;;;;;;5.77;1.40;;;-0.10;99.90;;;;;;5051502;28;20107;-54
2024/01/28 05:56:31;;;;;;;5.27;1.50;;;-0.20;99.90;;;;;;5050051;28;20441;-54
2024/01/28 05:58:57;;;;;;;4.50;1.47;;;-0.20;99.90;;;;;;5051269;28;20108;-52
2024/01/28 06:01:22;;;;;;;5.37;1.30;;;-0.20;99.90;;;;;;5051596;28;20338;-54
2024/01/28 06:03:49;;;;;;;2.97;1.20;;;-0.30;99.90;;;;;;5051078;28;20032;-53
2024/01/28 06:06:14;;;;;;;8.53;1.80;;;-0.30;99.90;;;;;;5051043;28;20036;-55
2024/01/28 06:08:41;;;;;;;7.37;2.00;;;-0.30;99.90;;;;;;5050662;28;20029;-55
2024/01/28 06:11:07;;;;;;;5.30;1.80;;;-0.30;99.90;;;;;;5049490;28;20053;-53
2024/01/28 06:13:33;;;;;;;6.50;1.83;;;-0.30;99.90;;;;;;5051001;28;20068;-51
2024/01/28 06:15:59;;;;;;;10.00;2.47;;;-0.30;99.90;;;;;;5050964;28;20089;-55
2024/01/28 06:18:25;;;;;;;6.63;1.87;;;-0.40;99.90;;;;;;5050936;28;20507;-53
2024/01/28 06:20:51;;;;;;;8.60;1.47;;;-0.40;99.90;;;;;;5050866;28;20021;-55
2024/01/28 06:23:16;;;;;;;6.33;1.30;;;-0.40;99.90;;;;;;5051069;28;20049;-55
2024/01/28 06:25:42;;;;;;;2.43;1.00;;;-0.40;99.90;;;;;;5048749;28;20058;-54
2024/01/28 06:28:08;;;;;;;2.37;1.10;;;-0.50;99.90;;;;;;5050575;28;20508;-54
2024/01/28 06:30:35;;;;;;;8.63;1.33;;;-0.50;99.90;;;;;;5050691;28;20205;-50
2024/01/28 06:33:02;;;;;;;3.90;1.47;;;-0.60;99.90;;;;;;5050366;28;20036;-52
2024/01/28 06:35:28;;;;;;;7.83;1.37;;;-0.60;99.90;;;;;;5051138;28;20025;-50
2024/01/28 06:37:54;;;;;;;10.60;1.30;;;-0.60;99.90;;;;;;5051259;28;20029;-51
2024/01/28 06:40:20;;;;;;;2.80;1.23;;;-0.60;99.90;;;;;;5051528;28;20036;-55
2024/01/28 06:42:45;;;;;;;4.60;0.97;;;-0.30;99.90;;;;;;5051336;28;20420;-51
2024/01/28 06:45:11;;;;;;;2.93;1.03;;;0.10;99.90;;;;;;5051322;28;20024;-54
2024/01/28 06:47:37;;;;;;;3.27;0.83;;;0.50;99.90;;;;;;5051238;28;20513;-50
2024/01/28 06:50:03;;;;;;;4.03;0.70;;;1.00;99.90;;;;;;5050295;28;20180;-53
2024/01/28 06:52:29;;;;;;;2.40;0.60;;;1.50;99.90;;;;;;5051012;28;20052;-53
2024/01/28 06:54:55;;;;;;;1.47;0.80;;;1.70;99.90;;;;;;5051387;28;20516;-50
2024/01/28 06:57:20;;;;;;;4.27;0.70;;;2.00;99.90;;;;;;5051147;28;20033;-53
2024/01/28 06:59:46;;;;;;;1.23;0.70;;;2.20;99.90;;;;;;5050983;28;20059;-51
2024/01/28 07:02:12;;;;;;;3.37;0.80;;;2.60;99.90;;;;;;5051333;28;20068;-54
2024/01/28 07:04:38;;;;;;;2.10;0.50;;;2.70;99.90;;;;;;5050935;28;20106;-54
2024/01/28 07:07:04;;;;;;;4.80;1.20;;;2.90;99.90;;;;;;5050766;28;20033;-52
2024/01/28 07:09:30;;;;;;;3.07;0.67;;;3.00;99.90;;;;;;5050838;28;20021;-50
2024/01/28 07:11:56;;;;;;;2.97;0.60;;;3.00;99.90;;;;;;5051136;28;20029;-54
2024/01/28 07:14:23;;;;;;;3.87;0.73;;;2.90;99.90;;;;;;5050314;28;20482;-50
2024/01/28 07:16:49;;;;;;;5.17;0.80;;;2.90;99.90;;;;;;5050570;28;20028;-50
2024/01/28 07:19:15;;;;;;;3.43;0.73;;;2.90;99.90;;;;;;5050312;28;20028;-51
2024/01/28 07:21:41;;;;;;;3.73;0.90;;;3.00;99.90;;;;;;5050980;28;20032;-53
2024/01/28 07:24:07;;;;;;;4.23;0.50;;;3.20;99.90;;;;;;5050032;28;20033;-51
2024/01/28 07:26:32;;;;;;;3.27;0.87;;;3.20;99.90;;;;;;5047760;28;20025;-50
2024/01/28 07:28:58;;;;;;;2.10;0.60;;;3.40;99.90;;;;;;5050024;28;20037;-50
2024/01/28 07:31:23;;;;;;;2.17;0.50;;;3.50;99.90;;;;;;5050631;28;20031;-50
2024/01/28 07:33:49;;;;;;;1.90;0.77;;;3.50;99.90;;;;;;5050520;28;20113;-51
2024/01/28 07:36:16;;;;;;;2.97;0.87;;;3.60;99.90;;;;;;5049453;28;20551;-54
2024/01/28 07:38:42;;;;;;;1.20;0.50;;;3.60;99.90;;;;;;5050763;28;20032;-54
2024/01/28 07:41:14;;;;;;;3.93;0.83;;;3.60;99.90;;;;;;5050717;28;20126;-55
2024/01/28 07:43:40;;;;;;;1.87;0.60;;;3.70;99.90;;;;;;5050508;28;20033;-54
2024/01/28 07:46:07;;;;;;;2.83;0.83;;;3.80;99.90;;;;;;5049926;28;20124;-52
2024/01/28 07:48:33;;;;;;;2.90;1.43;;;4.00;99.90;;;;;;5049887;28;20047;-50
2024/01/28 07:50:58;;;;;;;2.23;0.60;;;4.10;99.90;;;;;;5050223;28;20481;-54
2024/01/28 07:53:24;;;;;;;3.63;0.23;;;4.20;99.90;;;;;;5050273;28;20339;-53
2024/01/28 07:55:50;;;;;;;5.90;0.80;;;4.30;99.90;;;;;;5050021;28;20426;-53
2024/01/28 07:58:15;;;;;;;3.73;0.90;;;4.30;99.90;;;;;;5049782;28;20021;-52
2024/01/28 08:00:41;;;;;;;3.60;0.70;;;4.40;99.90;;;;;;5050123;28;20068;-53
2024/01/28 08:03:07;;;;;;;4.47;0.70;;;4.40;99.90;;;;;;5047540;28;20430;-54
2024/01/28 08:05:32;;;;;;;1.17;0.40;;;4.50;99.90;;;;;;5050384;28;20116;-54
2024/01/28 08:07:58;;;;;;;1.97;0.63;;;4.50;99.90;;;;;;5050292;28;20043;-54
2024/01/28 08:10:24;;;;;;;1.50;0.63;;;4.70;99.90;;;;;;5050070;28;20040;-53
2024/01/28 08:12:50;;;;;;;2.00;0.93;;;4.70;99.90;;;;;;5049533;28;20017;-54
2024/01/28 08:15:15;;;;;;;1.60;0.70;;;4.80;99.90;;;;;;5050396;28;20033;-54
2024/01/28 08:17:41;;;;;;;2.10;0.57;;;4.80;99.90;;;;;;5050403;28;20048;-55
2024/01/28 08:20:07;;;;;;;0.67;0.43;;;4.80;99.90;;;;;;5050647;28;20430;-50
2024/01/28 08:22:33;;;;;;;0.87;0.50;;;4.90;99.90;;;;;;5050246;28;20894;-50
2024/01/28 08:24:59;;;;;;;2.70;0.70;;;5.00;99.90;;;;;;5049929;28;20112;-54
2024/01/28 08:27:24;;;;;;;7.70;1.07;;;5.00;99.90;;;;;;5050002;28;20036;-53
2024/01/28 08:29:50;;;;;;;0.90;0.60;;;5.10;99.90;;;;;;5049887;28;20025;-52
2024/01/28 08:32:16;;;;;;;2.23;0.80;;;5.10;99.90;;;;;;5050003;28;20094;-53
2024/01/28 08:34:41;;;;;;;2.97;0.77;;;5.20;99.90;;;;;;5049773;28;20025;-54
2024/01/28 08:37:07;;;;;;;3.20;0.87;;;5.20;99.90;;;;;;5050014;28;20040;-54
2024/01/28 08:39:32;;;;;;;3.53;0.70;;;5.30;99.90;;;;;;5050062;28;20052;-52
2024/01/28 08:41:59;;;;;;;3.27;0.93;;;5.40;99.90;;;;;;5050405;28;20037;-54
2024/01/28 08:44:25;;;;;;;2.57;0.70;;;5.50;99.90;;;;;;5053538;28;20446;-52
2024/01/28 08:46:51;;;;;;;1.60;0.80;;;5.50;99.90;;;;;;5053426;28;20165;-54
2024/01/28 08:49:17;;;;;;;3.00;0.60;;;5.60;99.90;;;;;;5053165;28;20111;-54
2024/01/28 08:51:42;;;;;;;2.27;0.93;;;5.70;99.90;;;;;;5053597;28;20116;-52
2024/01/28 08:54:08;;;;;;;2.67;0.80;;;5.80;99.90;;;;;;5053231;28;20025;-54
2024/01/28 08:56:34;;;;;;;2.83;0.60;;;5.90;99.90;;;;;;5053548;28;20029;-51
2024/01/28 08:58:59;;;;;;;2.07;0.90;;;6.00;99.90;;;;;;5053226;28;20040;-52
2024/01/28 09:01:25;;;;;;;2.43;0.60;;;6.10;99.90;;;;;;5053444;28;20052;-55
2024/01/28 09:03:51;;;;;;;2.40;0.80;;;6.10;99.90;;;;;;5053524;28;20024;-53
2024/01/28 09:06:16;;;;;;;4.30;0.93;;;6.30;99.90;;;;;;5053340;28;20139;-51
2024/01/28 09:08:42;;;;;;;1.73;0.40;;;6.40;99.90;;;;;;5051908;28;20025;-53
2024/01/28 09:11:09;;;;;;;2.83;0.70;;;6.70;99.90;;;;;;5053272;28;20029;-53
2024/01/28 09:13:34;;;;;;;3.07;0.90;;;6.90;99.90;;;;;;5053002;28;20427;-53
2024/01/28 09:16:00;;;;;;;2.37;0.90;;;7.00;99.90;;;;;;5052899;28;20112;-52
2024/01/28 09:18:25;;;;;;;1.33;0.40;;;7.10;99.90;;;;;;5052855;28;20120;-49
2024/01/28 09:20:51;;;;;;;1.57;0.80;;;7.20;99.90;;;;;;5053084;28;20111;-54
2024/01/28 09:23:17;;;;;;;19.33;6.93;;;7.20;99.90;;;;;;5052774;28;20036;-54
2024/01/28 09:25:43;;;;;;;6.77;1.50;;;7.30;99.90;;;;;;5052955;28;20180;-54
2024/01/28 09:28:09;;;;;;;2.33;0.83;;;7.40;99.70;;;;;;5052791;28;20092;-54
2024/01/28 09:30:34;;;;;;;1.93;0.90;;;7.90;99.50;;;;;;5051437;28;20043;-51
2024/01/28 09:33:00;;;;;;;3.63;1.47;;;8.90;97.80;;;;;;5052616;28;20063;-52
2024/01/28 09:35:27;;;;;;;3.70;1.13;;;10.10;96.30;;;;;;5052661;28;20028;-49
2024/01/28 09:37:54;;;;;;;3.60;1.00;;;11.40;94.30;;;;;;5052558;28;20025;-53
2024/01/28 09:40:20;;;;;;;2.90;0.85;;;12.30;92.60;;;;;;5052549;28;20049;-53
2024/01/28 09:43:09;;;;;;;2.83;1.10;;;13.50;89.60;;;;;;5051285;28;20029;-54
2024/01/28 09:45:35;;;;;;;3.20;1.65;;;14.50;84.70;;;;;;5032954;28;20026;-51
2024/01/28 09:48:01;;;;;;;2.58;1.10;;;15.00;80.20;;;;;;5032563;28;20038;-54
2024/01/28 09:50:27;;;;;;;3.75;1.10;;;15.50;78.00;;;;;;5032841;28;20102;-54
2024/01/28 09:52:53;;;;;;;2.88;0.82;;;16.00;76.40;;;;;;5032732;28;20211;-54
2024/01/28 09:55:18;;;;;;;2.80;1.00;;;16.30;72.40;;;;;;5032001;28;20038;-52
2024/01/28 09:57:45;;;;;;;3.28;0.90;;;16.00;72.40;;;;;;5032583;28;20033;-53
2024/01/28 10:00:12;;;;;;;2.05;0.95;;;16.70;70.60;;;;;;5032009;28;20163;-52
2024/01/28 10:02:40;;;;;;;2.40;0.80;;;17.30;68.60;;;;;;5032516;28;20071;-53
2024/01/28 10:05:10;;;;;;;3.25;1.38;;;17.50;66.70;;;;;;5032782;28;20103;-50
2024/01/28 10:07:47;;;;;;;1.80;0.95;;;17.40;65.40;;;;;;5032176;28;20040;-53
2024/01/28 10:10:16;;;;;;;4.57;1.20;;;15.90;67.90;;;;;;5031823;28;20458;-53
2024/01/28 10:12:42;;;;;;;;;;;14.80;69.70;;;;;;5032772;28;20026;-52
2024/01/28 10:15:19;;;;;;;2.70;0.80;;;13.90;72.30;;;;;;5032144;28;20289;-51
2024/01/28 10:17:49;;;;;;;2.20;0.80;;;13.10;72.90;;;;;;5032030;28;20029;-49
2024/01/28 10:20:16;;;;;;;2.30;0.90;;;12.40;74.70;;;;;;5031844;28;20029;-49
2024/01/28 10:22:42;;;;;;;2.88;0.93;;;12.00;77.30;;;;;;5031942;28;20362;-49
2024/01/28 10:25:11;;;;;;;4.18;1.05;;;11.90;79.20;;;;;;5031610;28;20043;-51
2024/01/28 10:27:37;;;;;;;2.42;0.98;;;12.10;78.80;;;;;;5031898;28;20498;-49
2024/01/28 10:30:04;;;;;;;2.30;1.17;;;12.30;79.40;;;;;;5032123;28;20057;-52
2024/01/28 10:32:29;;;;;;;3.10;1.00;;;12.40;78.70;;;;;;5031801;28;20034;-51
2024/01/28 10:34:55;;;;;;;2.53;0.90;;;12.40;77.20;;;;;;5048526;28;20082;-50
2024/01/28 10:37:23;;;;;;;3.03;1.25;;;12.50;79.10;;;;;;5051471;28;20431;-51
2024/01/28 10:39:53;;;;;;;3.40;1.30;;;13.60;75.20;;;;;;5051331;28;20037;-54
2024/01/28 10:42:20;;;;;;;4.38;1.50;;;15.30;72.80;;;;;;5052012;28;20060;-51
2024/01/28 10:44:48;;;;;;;3.35;1.10;;;16.90;69.20;;;;;;5051829;28;20135;-55
2024/01/28 10:47:16;;;;;;;2.75;1.13;;;18.00;65.20;;;;;;5051402;28;20146;-49
2024/01/28 10:49:43;;;;;;;3.28;1.20;;;19.30;63.40;;;;;;5050991;28;20367;-51
2024/01/28 10:52:09;;;;;;;2.50;0.90;;;20.20;60.10;;;;;;5050986;28;20037;-53
2024/01/28 10:54:40;;;;;;;3.30;1.33;;;20.80;58.40;;;;;;5050749;28;20466;-52
2024/01/28 10:57:05;;;;;;;3.92;1.13;;;21.30;56.30;;;;;;5049825;28;20037;-53
2024/01/28 10:59:36;;;;;;;2.05;1.00;;;21.40;54.80;;;;;;5050874;28;20151;-51
2024/01/28 11:02:03;;;;;;;3.67;1.05;;;21.70;53.50;;;;;;5051338;28;20436;-55
2024/01/28 11:04:29;;;;;;;3.92;1.65;;;20.60;55.20;;;;;;5050631;28;20060;-52
2024/01/28 11:06:55;;;;;;;6.80;3.67;;;20.70;55.30;;;;;;5050132;28;20072;-51
2024/01/28 11:09:23;;;;;;;2.63;1.17;;;21.20;53.80;;;;;;5066013;28;20412;-55
2024/01/28 11:11:48;;;;;;;3.92;0.93;;;20.80;53.10;;;;;;5051072;28;20123;-53
2024/01/28 11:14:14;;;;;;;2.53;1.08;;;21.00;53.50;;;;;;5050761;28;20104;-56
2024/01/28 11:16:40;;;;;;;2.70;1.00;;;20.80;53.20;;;;;;5050702;28;20451;-55
2024/01/28 11:19:07;;;;;;;4.32;1.17;;;20.80;53.70;;;;;;5050665;28;20070;-54
2024/01/28 11:21:38;;;;;;;3.40;1.30;;;20.50;53.10;;;;;;5051038;28;20032;-52
2024/01/28 11:24:13;;;;;;;2.25;0.93;;;20.60;53.50;;;;;;5050374;28;20068;-54
2024/01/28 11:26:39;;;;;;;2.33;1.20;;;19.80;54.40;;;;;;5050810;28;20473;-55
2024/01/28 11:29:07;;;;;;;4.60;1.15;;;19.70;54.10;;;;;;5050386;28;20025;-55
2024/01/28 11:31:34;;;;;;;3.57;1.00;;;19.90;54.20;;;;;;5050757;28;20028;-55
2024/01/28 11:34:12;;;;;;;3.55;1.25;;;20.60;53.50;;;;;;5050493;28;20111;-54
2024/01/28 11:36:40;;;;;;;2.17;0.98;;;20.70;52.90;;;;;;5050703;28;20036;-54
2024/01/28 11:39:12;;;;;;;2.83;1.50;;;21.00;52.60;;;;;;5050615;28;20140;-53
2024/01/28 11:41:39;;;;;;;3.13;1.17;;;21.00;52.60;;;;;;5050762;28;20398;-51
2024/01/28 11:44:07;;;;;;;3.15;1.05;;;21.20;53.00;;;;;;5050547;28;20032;-55
2024/01/28 11:46:37;;;;;;;3.50;1.23;;;21.40;52.60;;;;;;5050722;28;20390;-55
2024/01/28 11:49:04;;;;;;;3.67;1.13;;;22.00;51.90;;;;;;5048920;28;20128;-55
2024/01/28 11:51:33;;;;;;;3.53;1.40;;;22.50;51.80;;;;;;5050664;28;20040;-53
2024/01/28 11:54:03;;;;;;;4.13;1.30;;;23.10;50.00;;;;;;5050360;28;20486;-56
2024/01/28 11:56:31;;;;;;;3.42;1.13;;;22.70;50.00;;;;;;5050355;28;20040;-55
2024/01/28 11:58:57;;;;;;;2.05;1.20;;;21.10;51.20;;;;;;5048951;28;20029;-55
2024/01/28 12:01:25;;;;;;;3.13;1.20;;;20.00;53.20;;;;;;5050582;28;20048;-52
2024/01/28 12:03:55;;;;;;;2.55;0.90;;;19.40;54.20;;;;;;5050256;28;20029;-55
2024/01/28 12:06:26;;;;;;;5.82;1.23;;;19.90;54.00;;;;;;5050286;28;20029;-55
2024/01/28 12:08:52;;;;;;;3.35;1.08;;;20.60;53.40;;;;;;5049992;28;20462;-55
2024/01/28 12:11:24;;;;;;;3.08;1.08;;;21.30;52.30;;;;;;5050482;28;20150;-52
2024/01/28 12:13:50;;;;;;;3.83;1.08;;;21.80;52.30;;;;;;5050003;28;20407;-54
2024/01/28 12:16:21;;;;;;;4.20;1.27;;;22.40;51.10;;;;;;5050239;28;20033;-54
2024/01/28 12:18:47;;;;;;;3.70;1.13;;;22.90;50.70;;;;;;5053522;28;20374;-55
2024/01/28 12:21:21;;;;;;;3.03;1.10;;;23.30;49.60;;;;;;5053922;28;20124;-55
2024/01/28 12:23:48;;;;;;;2.80;1.08;;;22.20;50.60;;;;;;5053976;28;20037;-55
2024/01/28 12:26:15;;;;;;;4.68;1.30;;;20.70;52.70;;;;;;5054350;28;20128;-54
2024/01/28 12:28:48;;;;;;;2.65;1.20;;;19.50;53.70;;;;;;5054074;28;20025;-54
2024/01/28 12:31:14;;;;;;;5.45;1.40;;;19.30;54.30;;;;;;5054278;28;20033;-55
2024/01/28 12:33:40;;;;;;;2.97;1.20;;;19.30;54.80;;;;;;5053789;28;20025;-54
2024/01/28 12:36:06;;;;;;;3.35;1.25;;;20.00;54.90;;;;;;5053814;28;20029;-55
2024/01/28 12:38:32;;;;;;;2.72;1.20;;;20.70;53.40;;;;;;5053803;28;20504;-55
2024/01/28 12:40:58;;;;;;;3.67;1.17;;;21.90;52.10;;;;;;5053878;28;20040;-54
2024/01/28 12:43:24;;;;;;;2.42;1.13;;;23.10;50.30;;;;;;5068841;28;20086;-55
2024/01/28 12:45:51;;;;;;;3.55;1.17;;;23.40;49.50;;;;;;5052455;28;20033;-54
2024/01/28 12:48:16;;;;;;;3.78;1.30;;;24.10;49.30;;;;;;5053329;28;20060;-50